Time;durP1;ratioP1;P1;durP2;ratioP2;P2;SDS_P1;SDS_P2;PMS_P1;PMS_P2;Temp;Humidity;BMP_temperature;BMP_pressure;BME280_temperature;BME280_humidity;BME280_pressure;Samples;Min_cycle;Max_cycle;Signal;HPM_P1;HPM_P2
2021/04/19 00:00:50;;;;;;;4.37;2.60;;;;;;;17.78;53.69;100809.07;1793379;79;21160;-57
2021/04/19 00:03:19;;;;;;;4.15;2.47;;;;;;;17.78;53.71;100809.07;1808613;78;21124;-57
2021/04/19 00:05:46;;;;;;;3.55;2.40;;;;;;;17.78;53.70;100810.45;1799024;79;21162;-58
2021/04/19 00:08:12;;;;;;;3.55;2.30;;;;;;;17.79;53.69;100818.41;1807354;79;21649;-57
2021/04/19 00:10:39;;;;;;;3.37;2.25;;;;;;;17.80;53.68;100813.73;1796313;79;21472;-57
2021/04/19 00:13:06;;;;;;;5.25;2.40;;;;;;;17.81;53.63;100815.38;1795837;79;21116;-57
2021/04/19 00:15:32;;;;;;;3.52;2.30;;;;;;;17.80;53.64;100813.17;1800160;79;21063;-58
2021/04/19 00:17:59;;;;;;;4.15;2.58;;;;;;;17.80;53.60;100813.73;1798196;79;21142;-58
2021/04/19 00:20:26;;;;;;;3.40;2.60;;;;;;;17.78;53.60;100815.39;1758300;80;21564;-57
2021/04/19 00:22:52;;;;;;;3.12;2.42;;;;;;;17.78;53.61;100815.95;1797869;79;21362;-58
2021/04/19 00:25:19;;;;;;;5.78;2.52;;;;;;;17.76;53.59;100816.27;1793400;79;21217;-57
2021/04/19 00:27:45;;;;;;;3.50;2.20;;;;;;;17.76;53.58;100812.70;1795207;79;21582;-57
2021/04/19 00:30:13;;;;;;;3.45;2.50;;;;;;;17.77;53.58;100815.71;1801002;79;21060;-57
2021/04/19 00:32:39;;;;;;;3.27;2.10;;;;;;;17.79;53.61;100812.09;1795291;79;21182;-57
2021/04/19 00:35:07;;;;;;;3.42;2.25;;;;;;;17.79;53.56;100810.72;1796705;79;21148;-58
2021/04/19 00:37:34;;;;;;;2.95;2.12;;;;;;;17.79;53.54;100818.41;1798809;79;21162;-58
2021/04/19 00:40:03;;;;;;;2.70;2.15;;;;;;;17.78;53.53;100809.89;1797332;79;21227;-58
2021/04/19 00:42:29;;;;;;;3.67;2.40;;;;;;;17.77;53.49;100811.03;1736956;80;21142;-57
2021/04/19 00:44:56;;;;;;;3.42;2.52;;;;;;;17.75;53.50;100809.13;1750860;80;21245;-58
2021/04/19 00:47:22;;;;;;;3.47;2.30;;;;;;;17.73;53.52;100802.30;1778479;78;21208;-57
2021/04/19 00:49:49;;;;;;;2.58;2.10;;;;;;;17.73;53.51;100803.11;1760093;79;21106;-57
2021/04/19 00:52:16;;;;;;;3.95;2.22;;;;;;;17.75;53.52;100804.17;1769593;79;21205;-57
2021/04/19 00:54:42;;;;;;;2.62;2.10;;;;;;;17.76;53.50;100794.81;1764320;79;21234;-57
2021/04/19 00:57:09;;;;;;;2.80;2.08;;;;;;;17.76;53.49;100792.87;1766404;79;23146;-57
2021/04/19 00:59:35;;;;;;;3.90;2.47;;;;;;;17.77;53.46;100791.77;1739335;79;21323;-55
2021/04/19 01:02:01;;;;;;;3.70;2.33;;;;;;;17.77;53.44;100792.33;1729868;79;21140;-58
2021/04/19 01:04:28;;;;;;;2.80;2.20;;;;;;;17.76;53.42;100790.13;1753198;79;21172;-58
2021/04/19 01:06:54;;;;;;;3.30;2.05;;;;;;;17.75;53.42;100793.16;1757742;79;21154;-58
2021/04/19 01:09:21;;;;;;;3.50;2.40;;;;;;;17.74;53.39;100789.59;1745641;80;21532;-59
2021/04/19 01:11:47;;;;;;;2.85;2.22;;;;;;;17.72;53.40;100784.96;1765076;79;21229;-58
2021/04/19 01:14:13;;;;;;;2.50;2.00;;;;;;;17.72;53.42;100779.45;1783253;79;21174;-58
2021/04/19 01:16:40;;;;;;;3.70;2.27;;;;;;;17.73;53.41;100775.59;1774012;79;21177;-58
2021/04/19 01:19:06;;;;;;;3.83;2.47;;;;;;;17.74;53.19;100773.08;1768814;79;21198;-58
2021/04/19 01:21:32;;;;;;;2.87;2.05;;;;;;;17.75;53.38;100777.48;1772418;79;21253;-58
2021/04/19 01:23:59;;;;;;;3.15;2.40;;;;;;;17.76;53.35;100781.05;1772512;78;21142;-58
2021/04/19 01:26:26;;;;;;;2.35;1.67;;;;;;;17.76;53.35;100781.05;1800725;78;21177;-58
2021/04/19 01:28:53;;;;;;;4.08;2.05;;;;;;;17.74;53.32;100782.72;1793173;78;20998;-58
2021/04/19 01:31:19;;;;;;;4.83;2.22;;;;;;;17.73;53.31;100784.41;1773478;79;21444;-58
2021/04/19 01:33:45;;;;;;;5.35;2.45;;;;;;;17.71;53.30;100785.25;1800730;79;21183;-58
2021/04/19 01:36:12;;;;;;;3.45;2.47;;;;;;;17.70;53.31;100784.43;1801828;79;21050;-58
2021/04/19 01:38:38;;;;;;;3.72;2.20;;;;;;;17.71;53.33;100789.37;1792473;77;21171;-58
2021/04/19 01:41:05;;;;;;;3.22;2.20;;;;;;;17.72;53.32;100784.14;1802293;78;21185;-58
2021/04/19 01:43:31;;;;;;;2.87;2.08;;;;;;;17.72;53.30;100782.21;1769056;79;21135;-58
2021/04/19 01:45:58;;;;;;;3.60;1.92;;;;;;;17.73;53.28;100786.61;1797155;79;21259;-59
2021/04/19 01:48:25;;;;;;;4.75;2.40;;;;;;;17.72;53.26;100784.96;1801386;78;21545;-58
2021/04/19 01:50:55;;;;;;;3.12;2.15;;;;;;;17.72;53.23;100789.64;1793469;79;21197;-58
2021/04/19 01:53:24;;;;;;;3.85;2.15;;;;;;;17.70;53.21;100791.86;1801764;79;21119;-58
2021/04/19 01:55:51;;;;;;;3.42;2.30;;;;;;;17.70;53.21;100801.48;1781363;79;21543;-58
2021/04/19 01:58:22;;;;;;;3.58;2.40;;;;;;;17.69;53.21;100795.75;1802554;79;21208;-58
2021/04/19 02:00:55;;;;;;;2.80;1.95;;;;;;;17.69;53.21;100795.75;1765604;79;21132;-58
2021/04/19 02:04:04;;;;;;;3.37;2.42;;;;;;;17.70;53.20;100790.48;1796139;78;21178;-58
2021/04/19 02:06:56;;;;;;;3.37;2.30;;;;;;;17.71;53.21;100793.50;1725409;82;21215;-59
2021/04/19 02:09:38;;;;;;;2.87;1.90;;;;;;;17.70;53.15;100789.93;1722500;82;21623;-58
2021/04/19 02:13:02;;;;;;;3.62;2.30;;;;;;;17.73;53.12;100781.10;1839192;75;22779;-58
2021/04/19 02:15:57;;;;;;;3.10;2.00;;;;;;;17.68;53.12;100779.80;1748364;80;21228;-57
2021/04/19 02:18:46;;;;;;;3.37;2.25;;;;;;;17.65;53.11;100791.38;1745599;80;21246;-57
2021/04/19 02:21:20;;;;;;;3.47;2.15;;;;;;;17.63;53.10;100788.12;1775043;79;21107;-57
2021/04/19 02:23:50;;;;;;;2.77;2.08;;;;;;;17.62;53.11;100785.10;1748999;80;22653;-57
2021/04/19 02:26:28;;;;;;;3.67;2.10;;;;;;;17.63;53.13;100778.49;1748888;80;21077;-59
2021/04/19 02:29:14;;;;;;;2.72;2.30;;;;;;;17.64;53.12;100778.76;1748148;80;21066;-57
2021/04/19 02:31:45;;;;;;;3.00;2.10;;;;;;;17.64;53.12;100770.51;1777829;79;21205;-58
2021/04/19 02:34:15;;;;;;;2.33;1.72;;;;;;;17.64;53.07;100771.06;1747556;81;21045;-58
2021/04/19 02:36:43;;;;;;;2.75;1.77;;;;;;;17.63;53.08;100772.99;1749885;80;21375;-57
2021/04/19 02:39:10;;;;;;;2.22;1.98;;;;;;;17.62;53.07;100775.47;1746989;80;21207;-57
2021/04/19 02:41:36;;;;;;;3.30;2.15;;;;;;;17.61;53.09;100771.66;1750275;80;21131;-57
2021/04/19 02:44:04;;;;;;;3.25;2.17;;;;;;;17.61;53.08;100781.30;1746537;80;21555;-57
2021/04/19 02:46:31;;;;;;;2.77;1.80;;;;;;;17.61;53.09;100775.20;1755520;80;21177;-57
2021/04/19 02:48:57;;;;;;;3.77;2.47;;;;;;;17.63;53.07;100776.30;1752548;80;21180;-57
2021/04/19 02:51:23;;;;;;;3.85;2.20;;;;;;;17.64;53.07;100777.39;1747030;80;21245;-57
2021/04/19 02:53:50;;;;;;;4.10;2.20;;;;;;;17.65;53.05;100779.58;1739359;81;21110;-57
2021/04/19 02:56:17;;;;;;;4.50;2.40;;;;;;;17.65;53.04;100774.88;1754149;80;21279;-57
2021/04/19 02:58:59;;;;;;;2.72;2.22;;;;;;;17.65;52.99;100779.58;1753096;80;21136;-58
2021/04/19 03:01:28;;;;;;;2.87;2.25;;;;;;;17.65;52.98;100778.20;1751678;80;21214;-56
2021/04/19 03:03:56;;;;;;;3.10;2.47;;;;;;;17.63;52.96;100772.17;1746609;80;21270;-57
2021/04/19 03:06:24;;;;;;;2.58;2.17;;;;;;;17.62;52.97;100771.91;1753860;80;21157;-57
2021/04/19 03:08:54;;;;;;;2.92;2.22;;;;;;;17.62;52.97;100771.91;1753880;80;22191;-57
2021/04/19 03:11:24;;;;;;;3.55;2.25;;;;;;;17.63;52.95;100765.29;1802065;77;21091;-57
2021/04/19 03:13:51;;;;;;;2.92;2.30;;;;;;;17.60;52.96;100764.52;1780335;79;21067;-57
2021/04/19 03:16:23;;;;;;;3.33;2.40;;;;;;;17.64;52.94;100765.00;1804626;77;21015;-58
2021/04/19 03:18:51;;;;;;;2.40;2.20;;;;;;;17.65;52.91;100767.20;1808065;77;21155;-58
2021/04/19 03:21:24;;;;;;;3.15;2.50;;;;;;;17.64;52.90;100762.25;1806430;77;21200;-57
2021/04/19 03:23:56;;;;;;;4.00;2.40;;;;;;;17.63;52.87;100764.73;1800787;77;21910;-58
2021/04/19 03:26:24;;;;;;;3.77;2.42;;;;;;;17.62;52.87;100765.84;1804684;77;21148;-56
2021/04/19 03:28:51;;;;;;;3.12;2.20;;;;;;;17.61;52.87;100757.91;1806373;77;21144;-56
2021/04/19 03:31:24;;;;;;;3.52;2.30;;;;;;;17.60;52.88;100758.47;1719334;81;21576;-57
2021/04/19 03:33:53;;;;;;;2.75;2.20;;;;;;;17.62;52.88;100758.15;1750143;80;21268;-58
2021/04/19 03:36:20;;;;;;;4.05;2.65;;;;;;;17.61;52.86;100752.41;1722587;82;21628;-57
2021/04/19 03:38:47;;;;;;;2.85;2.05;;;;;;;17.64;52.84;100749.88;1762703;79;21184;-58
2021/04/19 03:41:15;;;;;;;3.15;2.37;;;;;;;17.64;52.81;100749.88;1804077;77;21590;-57
2021/04/19 03:43:43;;;;;;;3.22;2.05;;;;;;;17.64;52.79;100749.88;1777737;79;21079;-57
2021/04/19 03:46:09;;;;;;;2.87;2.25;;;;;;;17.64;52.78;100749.88;1803968;77;21248;-58
2021/04/19 03:48:39;;;;;;;3.15;2.00;;;;;;;17.62;52.77;100753.47;1808940;77;21183;-58
2021/04/19 03:51:09;;;;;;;3.70;2.42;;;;;;;17.61;52.76;100756.53;1806962;77;21214;-58
2021/04/19 03:53:36;;;;;;;2.90;2.37;;;;;;;17.61;52.78;100751.82;1809474;77;21061;-57
2021/04/19 03:56:04;;;;;;;4.08;2.40;;;;;;;17.61;52.78;100751.82;1809572;77;21011;-57
2021/04/19 03:58:32;;;;;;;2.60;2.10;;;;;;;17.62;52.78;100748.52;1807806;79;21454;-58
2021/04/19 04:01:01;;;;;;;3.52;2.17;;;;;;;17.64;52.74;100747.67;1803470;77;21214;-58
2021/04/19 04:03:27;;;;;;;2.20;1.92;;;;;;;17.64;52.74;100740.80;1803057;77;21230;-58
2021/04/19 04:05:54;;;;;;;2.60;2.00;;;;;;;17.64;52.71;100733.92;1800997;77;21093;-58
2021/04/19 04:08:20;;;;;;;4.53;2.00;;;;;;;17.65;52.71;100733.59;1800415;77;21202;-57
2021/04/19 04:10:47;;;;;;;3.62;2.27;;;;;;;17.67;52.71;100738.26;1773897;79;21628;-57
2021/04/19 04:13:13;;;;;;;3.35;2.17;;;;;;;17.69;52.69;100737.42;1799305;79;21191;-57
2021/04/19 04:15:56;;;;;;;3.55;2.15;;;;;;;17.75;52.69;100744.45;1796853;79;21162;-57
2021/04/19 04:18:22;;;;;;;4.45;2.30;;;;;;;17.79;52.68;100746.87;1810033;79;21130;-57
2021/04/19 04:20:49;;;;;;;2.77;1.98;;;;;;;17.86;52.64;100741.00;1810281;79;21624;-57
2021/04/19 04:23:16;;;;;;;2.77;1.92;;;;;;;17.92;52.59;100740.33;1796048;79;21200;-58
2021/04/19 04:25:42;;;;;;;4.15;2.20;;;;;;;17.96;52.56;100740.80;1799106;79;21192;-58
2021/04/19 04:28:09;;;;;;;2.55;1.85;;;;;;;18.01;52.52;100744.03;1799480;79;21227;-58
2021/04/19 04:30:35;;;;;;;3.15;2.10;;;;;;;18.05;52.48;100746.44;1796571;79;21258;-57
2021/04/19 04:33:03;;;;;;;3.17;2.20;;;;;;;18.08;52.46;100745.83;1802607;79;21041;-58
2021/04/19 04:35:30;;;;;;;2.67;2.12;;;;;;;18.12;52.43;100747.67;1806065;79;23552;-58
2021/04/19 04:37:59;;;;;;;3.70;2.30;;;;;;;18.15;52.40;100744.89;1806177;79;21533;-57
2021/04/19 04:40:27;;;;;;;3.08;2.15;;;;;;;18.19;52.39;100746.75;1802063;79;21531;-57
2021/04/19 04:43:04;;;;;;;3.20;1.95;;;;;;;18.24;52.35;100743.91;1743356;81;21237;-56
2021/04/19 04:45:31;;;;;;;2.55;2.00;;;;;;;18.28;52.32;100752.93;1798585;79;21410;-57
2021/04/19 04:48:14;;;;;;;3.02;2.40;;;;;;;18.33;52.28;100766.03;1774946;79;21497;-57
2021/04/19 04:50:57;;;;;;;4.30;2.33;;;;;;;18.35;52.25;100758.30;1805306;79;21272;-57
2021/04/19 04:53:33;;;;;;;2.62;2.10;;;;;;;18.38;52.23;100761.81;1799288;79;21139;-57
2021/04/19 04:55:58;;;;;;;2.65;2.10;;;;;;;18.41;52.19;100764.53;1800226;79;21146;-57
2021/04/19 04:58:25;;;;;;;3.77;2.40;;;;;;;18.43;52.18;100767.78;1776069;79;21212;-57
2021/04/19 05:00:51;;;;;;;2.35;2.08;;;;;;;18.45;52.18;100767.76;1800903;79;23507;-57
2021/04/19 05:03:18;;;;;;;5.80;3.92;;;;;;;18.48;52.18;100757.50;1802062;79;21126;-60
2021/04/19 05:05:44;;;;;;;9.75;6.85;;;;;;;18.54;52.10;100758.26;1724434;81;21129;-61
2021/04/19 05:08:12;;;;;;;14.20;9.28;;;;;;;18.53;51.64;100760.75;1734476;80;21227;-60
2021/04/19 05:10:39;;;;;;;11.08;7.67;;;;;;;18.47;51.14;100772.94;1757990;80;21205;-56
2021/04/19 05:13:13;;;;;;;7.58;5.97;;;;;;;18.40;50.86;100769.78;1756758;80;22311;-56
2021/04/19 05:15:44;;;;;;;9.70;6.30;;;;;;;18.40;50.81;100766.47;1755178;80;21158;-58
2021/04/19 05:18:14;;;;;;;;;;;;;;;18.44;50.79;100774.94;1765418;80;21584;-57
2021/04/19 05:20:41;;;;;;;7.53;5.28;;;;;;;18.46;50.75;100775.47;1770966;80;20270;-57
2021/04/19 05:23:09;;;;;;;8.05;5.47;;;;;;;18.47;50.73;100761.92;1770558;80;21739;-58
2021/04/19 05:25:35;;;;;;;6.33;5.10;;;;;;;18.50;50.68;100755.83;1758992;80;21679;-57
2021/04/19 05:28:02;;;;;;;5.50;4.50;;;;;;;18.52;50.62;100756.33;1770773;80;21194;-57
2021/04/19 05:30:29;;;;;;;7.42;4.53;;;;;;;18.57;50.58;100757.64;1758932;80;21184;-57
2021/04/19 05:32:57;;;;;;;7.35;4.45;;;;;;;18.61;50.52;100753.16;1763559;80;21236;-57
2021/04/19 05:35:24;;;;;;;5.78;3.85;;;;;;;18.67;50.46;100750.56;1758917;80;21249;-57
2021/04/19 05:37:50;;;;;;;5.70;3.50;;;;;;;18.71;50.41;100748.24;1763635;80;21264;-57
2021/04/19 05:40:19;;;;;;;5.58;4.03;;;;;;;18.78;50.35;100743.72;1739484;80;21197;-57
2021/04/19 05:42:46;;;;;;;5.55;3.58;;;;;;;18.82;50.28;100741.16;1774337;80;21201;-58
2021/04/19 05:45:15;;;;;;;7.83;3.52;;;;;;;18.84;50.24;100741.09;1749836;80;21137;-58
2021/04/19 05:47:48;;;;;;;7.33;3.52;;;;;;;18.88;50.21;100733.05;1770819;80;21652;-57
2021/04/19 05:50:16;;;;;;;5.10;3.52;;;;;;;18.89;50.18;100729.15;1767386;80;21410;-58
2021/04/19 05:52:46;;;;;;;4.90;3.42;;;;;;;18.90;50.15;100731.61;1753725;80;21197;-58
2021/04/19 05:55:14;;;;;;;4.50;3.40;;;;;;;18.91;50.11;100733.25;1749837;80;21520;-57
2021/04/19 05:58:07;;;;;;;6.08;3.75;;;;;;;18.94;50.12;100730.42;1762254;80;21212;-57
2021/04/19 06:00:45;;;;;;;6.45;3.60;;;;;;;18.94;50.10;100729.87;1747542;80;21157;-58
2021/04/19 06:03:25;;;;;;;4.53;2.98;;;;;;;18.98;50.11;100737.77;1767787;80;21280;-58
2021/04/19 06:06:34;;;;;;;6.12;3.17;;;;;;;19.00;50.07;100733.34;1753054;80;21473;-57
2021/04/19 06:09:17;;;;;;;4.53;3.17;;;;;;;19.03;50.06;100727.20;1770412;79;21582;-57
2021/04/19 06:12:01;;;;;;;5.17;3.37;;;;;;;19.06;50.02;100727.39;1804637;77;21770;-57
2021/04/19 06:14:33;;;;;;;6.28;4.20;;;;;;;19.09;50.00;100724.60;1803082;77;21221;-58
2021/04/19 06:17:03;;;;;;;6.58;3.50;;;;;;;19.09;49.95;100720.47;1805284;78;21222;-58
2021/04/19 06:19:31;;;;;;;6.05;3.92;;;;;;;19.09;49.93;100719.91;1802540;77;21518;-57
2021/04/19 06:21:57;;;;;;;7.53;3.40;;;;;;;19.08;49.95;100719.64;1803830;77;21191;-57
2021/04/19 06:24:24;;;;;;;8.68;4.08;;;;;;;19.07;49.96;100722.14;1806750;77;21215;-57
2021/04/19 06:26:50;;;;;;;5.47;3.20;;;;;;;19.07;49.99;100713.87;1807994;77;21166;-58
2021/04/19 06:29:29;;;;;;;7.40;3.75;;;;;;;19.08;50.00;100719.64;1804746;78;21039;-58
2021/04/19 06:31:57;;;;;;;4.58;3.30;;;;;;;19.09;50.00;100712.19;1785093;78;21169;-57
2021/04/19 06:34:24;;;;;;;5.37;3.08;;;;;;;19.10;49.99;100717.94;1810503;77;21434;-58
2021/04/19 06:36:51;;;;;;;7.35;3.42;;;;;;;19.10;49.98;100722.89;1806511;78;21568;-57
2021/04/19 06:39:19;;;;;;;5.33;3.20;;;;;;;19.09;49.98;100722.66;1805202;78;21162;-57
2021/04/19 06:41:46;;;;;;;6.17;3.75;;;;;;;19.07;49.99;100730.41;1802275;78;21202;-56
2021/04/19 06:44:14;;;;;;;5.83;3.58;;;;;;;19.07;50.00;100726.84;1809696;79;21205;-56
2021/04/19 06:46:44;;;;;;;5.03;3.20;;;;;;;19.05;49.99;100738.16;1810606;78;21512;-57
2021/04/19 06:49:12;;;;;;;6.33;3.33;;;;;;;19.03;50.00;100740.43;1812261;78;21528;-56
2021/04/19 06:51:39;;;;;;;5.40;3.35;;;;;;;19.01;50.02;100740.50;1813742;78;21145;-56
2021/04/19 06:54:06;;;;;;;4.92;3.62;;;;;;;19.00;50.04;100739.67;1802140;79;22099;-57
2021/04/19 06:56:42;;;;;;;3.72;2.75;;;;;;;18.99;50.07;100735.28;1808035;77;21185;-56
2021/04/19 06:59:12;;;;;;;5.83;3.42;;;;;;;19.01;50.06;100729.47;1807743;78;21442;-56
2021/04/19 07:01:39;;;;;;;4.83;3.30;;;;;;;19.01;50.06;100736.36;1803738;78;21173;-57
2021/04/19 07:04:10;;;;;;;5.10;3.00;;;;;;;19.00;50.06;100736.92;1806121;78;21573;-56
2021/04/19 07:06:36;;;;;;;;;;;;;;;18.99;50.06;100734.45;1801069;79;21196;-56
2021/04/19 07:09:24;;;;;;;4.42;3.25;;;;;;;18.97;50.06;100730.62;1804401;78;20521;-56
2021/04/19 07:11:54;;;;;;;3.77;2.90;;;;;;;18.95;50.09;100732.89;1809840;78;21174;-56
2021/04/19 07:14:21;;;;;;;4.20;3.02;;;;;;;18.93;50.10;100733.73;1800894;79;21237;-56
2021/04/19 07:16:47;;;;;;;4.90;3.15;;;;;;;18.92;50.12;100738.20;1789392;79;21247;-56
2021/04/19 07:19:19;;;;;;;4.62;3.10;;;;;;;18.91;50.12;100737.38;1806731;79;21266;-57
2021/04/19 07:21:48;;;;;;;5.10;2.85;;;;;;;18.93;50.16;100724.65;1726346;81;21144;-57
2021/04/19 07:24:14;;;;;;;3.98;2.62;;;;;;;18.97;50.16;100731.18;1776781;80;21133;-56
2021/04/19 07:26:42;;;;;;;5.62;2.80;;;;;;;19.00;50.15;100724.52;1748470;80;21363;-57
2021/04/19 07:29:09;;;;;;;4.80;2.98;;;;;;;19.06;50.13;100721.87;1700868;83;21173;-56
2021/04/19 07:31:51;;;;;;;4.67;2.85;;;;;;;19.10;50.11;100728.41;1768589;80;21242;-59
2021/04/19 07:34:23;;;;;;;5.17;3.20;;;;;;;19.15;50.12;100724.16;1758491;80;21781;-57
2021/04/19 07:36:57;;;;;;;7.30;3.60;;;;;;;19.33;50.16;100722.95;1760470;81;21143;-58
2021/04/19 07:39:27;;;;;;;6.05;3.80;;;;;;;19.39;50.03;100721.72;1787887;80;21125;-57
2021/04/19 07:41:59;;;;;;;9.10;3.85;;;;;;;19.43;49.98;100718.06;1803955;79;21115;-57
2021/04/19 07:44:41;;;;;;;6.33;3.90;;;;;;;19.46;49.95;100720.75;1815295;79;21605;-61
2021/04/19 07:47:33;;;;;;;7.20;4.12;;;;;;;19.48;49.94;100723.99;1817346;79;21591;-58
2021/04/19 07:50:23;;;;;;;16.35;5.67;;;;;;;19.52;49.99;100718.10;1802493;78;21168;-59
2021/04/19 07:53:02;;;;;;;12.53;5.58;;;;;;;19.58;50.04;100721.00;1790648;79;21231;-58
2021/04/19 07:55:35;;;;;;;10.30;5.85;;;;;;;19.63;50.35;100722.83;1794435;79;21226;-58
2021/04/19 07:58:01;;;;;;;9.83;5.75;;;;;;;19.65;50.71;100718.61;1794865;79;21180;-58
2021/04/19 08:00:32;;;;;;;9.90;5.33;;;;;;;19.70;51.08;100715.73;1796672;79;21156;-57
2021/04/19 08:03:10;;;;;;;10.30;6.03;;;;;;;19.71;51.41;100711.85;1800719;79;21235;-58
2021/04/19 08:05:49;;;;;;;8.80;5.58;;;;;;;19.74;51.65;100708.45;1803120;79;21230;-58
2021/04/19 08:08:19;;;;;;;8.38;5.55;;;;;;;19.77;52.07;100707.03;1801799;77;21181;-58
2021/04/19 08:10:46;;;;;;;10.10;5.22;;;;;;;19.78;52.35;100699.80;1789876;79;22183;-58
2021/04/19 08:13:17;;;;;;;7.83;5.03;;;;;;;19.83;52.53;100704.38;1785996;77;21162;-58
2021/04/19 08:15:45;;;;;;;11.08;6.00;;;;;;;19.87;52.91;100703.44;1783991;79;21240;-58
2021/04/19 08:18:21;;;;;;;11.53;5.60;;;;;;;19.93;53.26;100702.19;1794840;79;21554;-57
2021/04/19 08:20:52;;;;;;;10.10;5.58;;;;;;;19.99;53.55;100696.77;1788702;79;21152;-58
2021/04/19 08:23:19;;;;;;;11.33;5.45;;;;;;;20.08;53.76;100705.10;1781338;79;22147;-57
2021/04/19 08:25:48;;;;;;;9.60;5.40;;;;;;;20.17;53.83;100705.15;1785658;79;21209;-58
2021/04/19 08:28:20;;;;;;;9.25;5.92;;;;;;;20.22;53.87;100703.08;1786545;79;21222;-59
2021/04/19 08:30:52;;;;;;;8.68;6.05;;;;;;;20.28;53.79;100699.05;1796893;79;21110;-58
2021/04/19 08:33:18;;;;;;;;;;;;;;;20.30;53.75;100695.98;1801420;79;21273;-58
2021/04/19 08:35:47;;;;;;;11.63;5.75;;;;;;;20.31;53.68;100686.57;1786115;79;21181;-58
2021/04/19 08:38:15;;;;;;;10.88;5.55;;;;;;;20.30;53.63;100680.23;1792158;79;21135;-57
2021/04/19 08:40:41;;;;;;;11.83;5.47;;;;;;;20.32;53.53;100684.06;1792785;79;21142;-58
2021/04/19 08:43:12;;;;;;;9.83;4.85;;;;;;;20.33;53.40;100680.14;1797184;79;21111;-58
2021/04/19 08:45:40;;;;;;;;;;;;;;;20.35;53.22;100677.33;1793097;79;21274;-58
2021/04/19 08:48:11;;;;;;;10.30;5.08;;;;;;;20.38;53.08;100678.63;1789526;79;23517;-58
2021/04/19 08:50:41;;;;;;;9.10;4.95;;;;;;;20.39;52.95;100670.03;1783348;79;21522;-58
2021/04/19 08:53:11;;;;;;;7.12;4.22;;;;;;;20.44;52.80;100671.84;1785392;79;21132;-59
2021/04/19 08:55:39;;;;;;;10.00;4.90;;;;;;;20.46;52.61;100661.27;1799516;79;21193;-58
2021/04/19 08:58:11;;;;;;;10.40;4.62;;;;;;;20.48;52.48;100665.92;1792431;79;21046;-57
2021/04/19 09:00:40;;;;;;;8.43;4.65;;;;;;;20.50;52.35;100666.39;1786610;79;21190;-60
2021/04/19 09:03:07;;;;;;;9.15;4.62;;;;;;;20.51;52.22;100666.66;1786123;79;21143;-59
2021/04/19 09:05:34;;;;;;;7.87;4.53;;;;;;;20.51;52.12;100663.32;1803387;79;21250;-59
2021/04/19 09:08:09;;;;;;;7.28;4.53;;;;;;;20.51;52.05;100660.56;1797196;79;21161;-59
2021/04/19 09:11:05;;;;;;;7.60;4.92;;;;;;;20.50;51.99;100654.78;1794694;79;21209;-58
2021/04/19 09:13:44;;;;;;;7.05;3.77;;;;;;;20.50;51.94;100661.69;1794264;77;22186;-62
2021/04/19 09:16:22;;;;;;;6.70;3.75;;;;;;;20.48;51.88;100646.01;1802010;77;21122;-63
2021/04/19 09:18:59;;;;;;;6.12;3.65;;;;;;;20.50;51.78;100646.48;1802909;77;21187;-59
2021/04/19 09:21:40;;;;;;;9.20;4.95;;;;;;;20.53;51.64;100649.20;1798589;77;21122;-59
2021/04/19 09:24:10;;;;;;;8.60;4.10;;;;;;;20.57;51.52;100646.03;1800116;79;21616;-58
2021/04/19 09:26:55;;;;;;;7.65;4.05;;;;;;;20.60;51.40;100641.23;1802572;77;21209;-59
2021/04/19 09:29:30;;;;;;;8.53;4.45;;;;;;;20.64;51.28;100642.78;1795648;77;21541;-58
2021/04/19 09:32:09;;;;;;;7.70;3.92;;;;;;;20.68;51.19;100637.67;1748983;80;21247;-59
2021/04/19 09:34:49;;;;;;;8.10;4.37;;;;;;;20.70;51.10;100630.45;1740259;80;21209;-59
2021/04/19 09:37:22;;;;;;;;;;;;;;;20.72;51.01;100637.84;1762616;79;21233;-59
2021/04/19 09:39:53;;;;;;;7.15;4.10;;;;;;;20.72;50.96;100633.13;1760513;79;21380;-59
2021/04/19 09:43:08;;;;;;;6.92;3.62;;;;;;;20.71;50.93;100626.56;1804985;77;21114;-59
2021/04/19 09:45:48;;;;;;;5.90;3.22;;;;;;;20.71;50.87;100625.97;1807415;77;21131;-59
2021/04/19 09:48:34;;;;;;;5.67;3.47;;;;;;;20.72;50.80;100624.02;1805291;77;21198;-59
2021/04/19 09:51:22;;;;;;;6.25;3.58;;;;;;;20.75;50.77;100627.55;1745504;80;21109;-60
2021/04/19 09:54:08;;;;;;;5.70;3.37;;;;;;;20.79;50.72;100613.31;1755523;80;21208;-59
2021/04/19 09:56:41;;;;;;;5.72;3.83;;;;;;;20.81;50.66;100611.84;1753151;80;21190;-59
2021/04/19 09:59:31;;;;;;;4.75;3.00;;;;;;;20.84;50.61;100611.75;1749531;80;21134;-59
2021/04/19 10:02:00;;;;;;;4.80;3.27;;;;;;;20.85;50.55;100611.44;1684210;83;21179;-58
2021/04/19 10:04:27;;;;;;;6.65;3.37;;;;;;;20.86;50.50;100608.11;1704816;83;21220;-58
2021/04/19 10:06:57;;;;;;;4.87;3.27;;;;;;;20.86;50.48;100614.45;1699694;83;21584;-58
2021/04/19 10:09:26;;;;;;;7.93;3.60;;;;;;;20.87;50.48;100609.17;1675116;84;21158;-59
2021/04/19 10:12:02;;;;;;;5.85;3.30;;;;;;;20.87;50.43;100610.56;1675565;84;21190;-59
2021/04/19 10:14:39;;;;;;;5.45;3.10;;;;;;;20.87;50.43;100602.83;1674740;84;21221;-58
2021/04/19 10:17:22;;;;;;;5.58;3.37;;;;;;;20.87;50.43;100602.83;1686892;83;21123;-59
2021/04/19 10:19:49;;;;;;;4.28;3.15;;;;;;;20.87;50.42;100607.80;1701089;83;21300;-59
2021/04/19 10:22:17;;;;;;;4.53;3.30;;;;;;;20.90;50.40;100600.22;1688706;83;21692;-58
2021/04/19 10:24:56;;;;;;;4.47;3.25;;;;;;;20.91;50.36;100593.56;1670188;84;21165;-58
2021/04/19 10:27:26;;;;;;;4.45;2.87;;;;;;;20.92;50.35;100595.17;1690117;83;21228;-58
2021/04/19 10:29:55;;;;;;;5.75;3.37;;;;;;;20.93;50.31;100591.27;1699826;81;21249;-59
2021/04/19 10:32:30;;;;;;;4.28;2.62;;;;;;;20.94;50.29;100587.38;1679677;83;21832;-59
2021/04/19 10:34:57;;;;;;;4.95;2.90;;;;;;;20.94;50.26;100581.84;1694029;83;21178;-59
2021/04/19 10:37:23;;;;;;;4.75;3.10;;;;;;;20.93;50.24;100578.83;1687656;83;21221;-59
2021/04/19 10:39:50;;;;;;;5.17;3.17;;;;;;;20.94;50.23;100583.23;1694607;82;21221;-60
2021/04/19 10:42:27;;;;;;;4.35;3.00;;;;;;;20.94;50.21;100582.41;1696193;83;21153;-59
2021/04/19 10:44:54;;;;;;;6.00;2.90;;;;;;;20.94;50.22;100583.79;1689315;83;21221;-59
2021/04/19 10:47:28;;;;;;;4.80;2.87;;;;;;;20.92;50.22;100582.72;1673472;84;21279;-59
2021/04/19 10:49:55;;;;;;;4.58;3.15;;;;;;;20.92;50.22;100581.91;1697375;82;21229;-59
2021/04/19 10:52:21;;;;;;;4.83;3.00;;;;;;;20.92;50.23;100581.91;1682354;83;21213;-59
2021/04/19 10:54:48;;;;;;;4.00;2.58;;;;;;;20.92;50.18;100578.58;1676892;84;21211;-59
2021/04/19 10:57:27;;;;;;;4.80;2.80;;;;;;;20.92;50.17;100571.66;1699995;82;21165;-60
2021/04/19 10:59:55;;;;;;;5.65;3.22;;;;;;;20.91;50.16;100565.09;1703754;82;21232;-59
2021/04/19 11:02:23;;;;;;;4.80;3.05;;;;;;;20.87;50.16;100573.23;1684184;83;21304;-58
2021/04/19 11:04:50;;;;;;;5.12;3.05;;;;;;;20.84;50.17;100566.13;1682675;83;21189;-58
2021/04/19 11:07:26;;;;;;;4.87;3.12;;;;;;;20.80;50.19;100555.47;1663674;84;21229;-59
2021/04/19 11:10:17;;;;;;;5.33;3.00;;;;;;;20.76;50.22;100551.17;1693777;83;22129;-59
2021/04/19 11:13:08;;;;;;;3.67;2.62;;;;;;;20.73;50.24;100539.95;1702222;83;21257;-59
2021/04/19 11:15:43;;;;;;;4.78;2.95;;;;;;;20.70;50.30;100549.72;1661568;85;21199;-58
2021/04/19 11:18:39;;;;;;;4.30;2.85;;;;;;;20.68;50.32;100540.92;1692589;83;21636;-59
2021/04/19 11:21:06;;;;;;;5.50;2.83;;;;;;;20.69;50.34;100545.88;1722308;81;21171;-59
2021/04/19 11:23:34;;;;;;;5.30;3.10;;;;;;;20.71;50.35;100544.41;1714118;81;21216;-58
2021/04/19 11:26:05;;;;;;;6.53;2.72;;;;;;;20.71;50.31;100533.95;1721893;81;22466;-58
2021/04/19 11:28:34;;;;;;;4.03;2.77;;;;;;;20.70;50.29;100533.13;1681483;83;21268;-58
2021/04/19 11:31:19;;;;;;;5.00;3.17;;;;;;;20.69;50.29;100534.27;1721209;81;21262;-58
2021/04/19 11:33:47;;;;;;;3.90;2.90;;;;;;;20.68;50.33;100531.24;1734392;81;22038;-58
2021/04/19 11:36:13;;;;;;;4.97;2.60;;;;;;;20.67;50.33;100530.99;1722313;81;21221;-58
2021/04/19 11:38:41;;;;;;;4.37;3.00;;;;;;;20.68;50.33;100534.58;1730050;81;21498;-59
2021/04/19 11:41:13;;;;;;;6.28;3.02;;;;;;;20.65;50.33;100525.56;1716073;81;21240;-59
2021/04/19 11:43:51;;;;;;;4.42;3.12;;;;;;;20.65;50.35;100514.50;1710191;81;21231;-59
2021/04/19 11:46:19;;;;;;;4.35;2.80;;;;;;;20.67;50.37;100511.64;1734986;81;21168;-58